Time;durP1;ratioP1;P1;durP2;ratioP2;P2;SDS_P1;SDS_P2;PMS_P1;PMS_P2;Temp;Humidity;BMP_temperature;BMP_pressure;BME280_temperature;BME280_humidity;BME280_pressure;Samples;Min_cycle;Max_cycle;Signal;HPM_P1;HPM_P2
2022/05/03 00:02:13;;;;;;;4.18;3.10;;;;;;;14.31;41.07;101775.00;5134450;27;20489;-60
2022/05/03 00:04:54;;;;;;;5.50;3.25;;;;;;;14.25;41.29;101767.34;5115259;28;20049;-61
2022/05/03 00:07:32;;;;;;;4.25;3.30;;;;;;;14.20;41.27;101763.25;5129418;27;20035;-61
2022/05/03 00:10:08;;;;;;;6.35;3.28;;;;;;;14.16;41.20;101773.41;5136012;27;20503;-62
2022/05/03 00:12:41;;;;;;;3.95;3.20;;;;;;;14.12;41.48;101773.69;5135595;27;20032;-62
2022/05/03 00:15:08;;;;;;;3.63;3.03;;;;;;;14.09;41.32;101772.09;5134743;27;20436;-62
2022/05/03 00:17:37;;;;;;;4.72;2.88;;;;;;;14.06;41.45;101769.59;5134497;27;20035;-61
2022/05/03 00:20:04;;;;;;;3.72;3.08;;;;;;;14.04;41.53;101770.69;5135179;27;20066;-62
2022/05/03 00:22:32;;;;;;;3.53;2.70;;;;;;;14.00;41.43;101773.59;5134887;27;20054;-60
2022/05/03 00:24:59;;;;;;;4.10;2.92;;;;;;;13.95;41.56;101775.75;5133559;27;20045;-61
2022/05/03 00:27:27;;;;;;;3.80;2.90;;;;;;;13.93;41.59;101774.13;5135173;27;20567;-62
2022/05/03 00:29:55;;;;;;;4.32;2.72;;;;;;;13.92;41.80;101777.81;5118377;27;20488;-61
2022/05/03 00:32:23;;;;;;;4.43;3.10;;;;;;;13.92;41.74;101767.00;5133545;27;20043;-61
2022/05/03 00:34:50;;;;;;;3.95;2.90;;;;;;;13.94;41.93;101765.94;5135169;27;20043;-61
2022/05/03 00:37:17;;;;;;;7.68;2.63;;;;;;;13.96;41.94;101771.22;5135610;27;20410;-61
2022/05/03 00:39:43;;;;;;;3.00;2.47;;;;;;;13.96;41.91;101763.97;5134707;27;20039;-61
2022/05/03 00:42:18;;;;;;;6.20;2.65;;;;;;;13.98;41.99;101763.88;5134396;27;20092;-61
2022/05/03 00:45:10;;;;;;;3.60;2.78;;;;;;;13.98;41.87;101763.88;5117915;27;20039;-61
2022/05/03 00:48:01;;;;;;;3.45;2.53;;;;;;;13.95;41.86;101764.97;5132596;27;20493;-61
2022/05/03 00:50:38;;;;;;;3.20;2.33;;;;;;;13.94;41.96;101767.75;5133303;27;20042;-61
2022/05/03 00:53:14;;;;;;;3.33;2.25;;;;;;;13.92;41.87;101767.00;5134318;27;20044;-61
2022/05/03 00:56:14;;;;;;;4.20;2.90;;;;;;;13.89;41.82;101765.38;5135063;27;20100;-61
2022/05/03 00:59:02;;;;;;;3.38;2.55;;;;;;;13.86;41.80;101765.59;5045671;28;20057;-61
2022/05/03 01:01:46;;;;;;;6.25;2.97;;;;;;;13.81;42.08;101767.75;5126791;27;20508;-60
2022/05/03 01:04:23;;;;;;;3.63;2.50;;;;;;;13.79;41.89;101768.84;5134178;27;20040;-61
2022/05/03 01:07:00;;;;;;;3.35;2.47;;;;;;;13.77;42.05;101773.50;5135234;27;20043;-60
2022/05/03 01:09:40;;;;;;;5.72;2.58;;;;;;;13.74;41.99;101782.66;5135008;27;20404;-61
2022/05/03 01:12:24;;;;;;;2.97;2.58;;;;;;;13.71;41.96;101776.63;5108606;27;20039;-61
2022/05/03 01:15:00;;;;;;;3.10;2.80;;;;;;;13.66;41.90;101783.19;5133796;27;20050;-61
2022/05/03 01:17:36;;;;;;;3.65;2.90;;;;;;;13.61;41.93;101776.38;5132976;27;20046;-61
2022/05/03 01:20:05;;;;;;;7.68;2.83;;;;;;;13.58;42.08;101772.06;5134670;27;20049;-62
2022/05/03 01:23:04;;;;;;;4.05;2.50;;;;;;;13.53;42.37;101771.53;5115134;27;20035;-61
2022/05/03 01:25:50;;;;;;;6.60;2.60;;;;;;;13.46;42.31;101769.34;5129175;27;20525;-61
2022/05/03 01:28:28;;;;;;;4.72;2.55;;;;;;;13.43;42.10;101766.84;5113792;28;20047;-61
2022/05/03 01:30:57;;;;;;;3.50;2.58;;;;;;;13.40;42.36;101769.75;5117108;27;20046;-61
2022/05/03 01:33:38;;;;;;;3.70;2.78;;;;;;;13.31;42.41;101773.91;5133530;27;20122;-61
2022/05/03 01:36:07;;;;;;;3.45;2.83;;;;;;;13.25;42.46;101768.94;5133818;27;20035;-61
2022/05/03 01:38:34;;;;;;;4.03;2.47;;;;;;;13.20;42.37;101768.38;5131508;27;20035;-62
2022/05/03 01:42:01;;;;;;;2.83;2.45;;;;;;;13.13;42.57;101764.34;5133660;27;20031;-61
2022/05/03 01:44:39;;;;;;;4.05;2.53;;;;;;;13.09;42.57;101770.91;5049397;28;20047;-61
2022/05/03 01:47:17;;;;;;;4.35;2.63;;;;;;;13.02;42.67;101759.66;5111009;28;20050;-60
2022/05/03 01:50:20;;;;;;;4.03;2.70;;;;;;;12.94;42.54;101759.31;5130072;28;20039;-61
2022/05/03 01:53:12;;;;;;;3.38;2.55;;;;;;;12.85;42.76;101757.22;5128240;28;20050;-61
2022/05/03 01:56:15;;;;;;;3.42;2.50;;;;;;;12.77;42.82;101763.13;5134568;28;20522;-62
2022/05/03 01:58:52;;;;;;;2.95;2.60;;;;;;;12.71;42.74;101761.69;5134100;28;20055;-62
2022/05/03 02:01:40;;;;;;;6.50;2.38;;;;;;;12.64;42.96;101760.38;5124418;28;20047;-61
2022/05/03 02:04:32;;;;;;;3.40;2.28;;;;;;;12.61;43.05;101765.06;5125018;28;20074;-62
2022/05/03 02:07:10;;;;;;;4.72;2.78;;;;;;;12.57;43.09;101756.31;5134172;27;20477;-61
2022/05/03 02:10:01;;;;;;;4.97;2.70;;;;;;;12.52;43.12;101763.84;5134055;27;20050;-61
2022/05/03 02:12:30;;;;;;;5.05;2.78;;;;;;;12.50;43.13;101764.91;5134374;27;20122;-63
2022/05/03 02:15:06;;;;;;;4.72;2.70;;;;;;;12.47;43.19;101751.63;5135730;27;20035;-61
2022/05/03 02:18:03;;;;;;;3.33;2.58;;;;;;;12.43;43.36;101758.16;5137337;27;20481;-62
2022/05/03 02:20:48;;;;;;;4.20;2.55;;;;;;;12.38;43.34;101759.34;5136617;27;20050;-61
2022/05/03 02:23:50;;;;;;;5.75;3.08;;;;;;;12.37;43.19;101756.75;5137639;27;20066;-62
2022/05/03 02:26:41;;;;;;;3.58;2.70;;;;;;;12.32;43.50;101750.78;5092406;27;20470;-61
2022/05/03 02:29:15;;;;;;;4.05;3.00;;;;;;;12.28;43.48;101755.50;5138281;27;20484;-60
2022/05/03 02:31:52;;;;;;;3.35;2.63;;;;;;;12.26;43.54;101760.13;5136989;27;20035;-61
2022/05/03 02:34:41;;;;;;;4.13;2.88;;;;;;;12.25;43.47;101763.78;5136858;27;20049;-62
2022/05/03 02:37:18;;;;;;;4.10;2.67;;;;;;;12.26;43.71;101759.25;5119903;27;20408;-61
2022/05/03 02:40:03;;;;;;;5.38;3.30;;;;;;;12.27;43.74;101761.84;5137589;27;20050;-62
2022/05/03 02:42:31;;;;;;;4.78;3.17;;;;;;;12.27;43.70;101753.78;5128484;27;20035;-61
2022/05/03 02:45:01;;;;;;;5.55;3.47;;;;;;;12.27;43.71;101756.47;5130020;27;20429;-61
2022/05/03 02:48:14;;;;;;;3.10;2.80;;;;;;;12.23;44.09;101754.94;5136529;27;20043;-62
2022/05/03 02:51:03;;;;;;;4.53;2.80;;;;;;;12.23;44.11;101748.66;5136929;27;20089;-61
2022/05/03 02:53:51;;;;;;;4.10;3.05;;;;;;;12.22;43.95;101749.63;5114683;28;20493;-62
2022/05/03 02:56:48;;;;;;;5.60;3.08;;;;;;;12.15;44.07;101756.38;5117015;28;20046;-61
2022/05/03 03:01:47;;;;;;;4.20;2.85;;;;;;;12.10;44.08;101753.97;5116962;28;20055;-64
2022/05/03 03:02:26;;;;;;;3.25;2.80;;;;;;;12.03;44.13;101758.00;5116725;28;20152;-61
2022/05/03 03:05:09;;;;;;;5.15;3.20;;;;;;;11.96;44.37;101756.66;5132962;27;20500;-61
2022/05/03 03:07:42;;;;;;;5.13;3.03;;;;;;;11.91;44.28;101762.34;5137664;27;20126;-61
2022/05/03 03:10:13;;;;;;;3.97;3.15;;;;;;;11.86;44.37;101755.47;5137018;27;20054;-60
2022/05/03 03:12:53;;;;;;;4.40;2.92;;;;;;;11.83;44.47;101764.59;5136698;27;20118;-62
2022/05/03 03:15:27;;;;;;;4.07;3.03;;;;;;;11.80;44.63;101759.41;5131937;27;20039;-61
2022/05/03 03:17:56;;;;;;;6.82;2.72;;;;;;;11.78;44.63;101761.34;5116415;27;20044;-62
2022/05/03 03:20:27;;;;;;;3.92;3.17;;;;;;;11.76;44.69;101760.53;5117890;27;20031;-61
2022/05/03 03:22:55;;;;;;;4.88;3.40;;;;;;;11.75;44.80;101761.50;5135048;27;20065;-62
2022/05/03 03:25:23;;;;;;;4.00;3.05;;;;;;;11.73;44.82;101755.34;5135731;27;20410;-61
2022/05/03 03:27:53;;;;;;;11.88;3.70;;;;;;;11.72;44.82;101757.16;5136303;27;20046;-61
2022/05/03 03:30:21;;;;;;;5.00;3.33;;;;;;;11.73;44.99;101758.03;5135904;27;20043;-61
2022/05/03 03:32:49;;;;;;;3.28;2.88;;;;;;;11.71;44.94;101755.44;5136617;27;20492;-60
2022/05/03 03:35:17;;;;;;;6.75;3.05;;;;;;;11.72;44.96;101754.47;5134792;27;20051;-61
2022/05/03 03:37:46;;;;;;;4.13;3.55;;;;;;;11.73;45.10;101756.19;5117615;27;20393;-60
2022/05/03 03:40:15;;;;;;;3.90;2.97;;;;;;;11.72;45.03;101756.28;5136955;27;20047;-61
2022/05/03 03:42:43;;;;;;;4.10;3.28;;;;;;;11.70;45.12;101758.22;5135951;27;20409;-60
2022/05/03 03:45:15;;;;;;;5.35;3.25;;;;;;;11.69;45.27;101759.16;5133665;27;20035;-61
2022/05/03 03:47:43;;;;;;;4.38;3.17;;;;;;;11.66;45.21;101764.75;5133991;27;20114;-60
2022/05/03 03:50:10;;;;;;;4.72;3.42;;;;;;;11.63;45.17;101751.47;5134699;27;20035;-60
2022/05/03 03:52:42;;;;;;;4.55;3.85;;;;;;;11.58;45.35;101753.59;5136369;27;20125;-61
2022/05/03 03:55:10;;;;;;;6.93;3.28;;;;;;;11.52;45.41;101752.13;5135626;27;20057;-61
2022/05/03 03:57:37;;;;;;;3.83;3.35;;;;;;;11.47;45.33;101756.91;5135402;27;20043;-61
2022/05/03 04:00:10;;;;;;;5.50;3.70;;;;;;;11.46;45.48;101755.19;5135470;27;20047;-61
2022/05/03 04:02:43;;;;;;;4.53;3.50;;;;;;;11.45;45.65;101750.78;5135715;27;20092;-60
2022/05/03 04:05:19;;;;;;;14.15;3.60;;;;;;;11.44;45.61;101755.28;5135079;27;20050;-61
2022/05/03 04:07:46;;;;;;;;;;;;;;;11.45;45.56;101750.78;5127242;27;20036;-61
2022/05/03 04:10:12;;;;;;;5.07;3.20;;;;;;;11.46;45.37;101750.69;5116328;27;20392;-61
2022/05/03 04:12:40;;;;;;;5.43;3.80;;;;;;;11.44;45.64;101757.97;5136038;27;20043;-61
2022/05/03 04:15:07;;;;;;;4.68;3.38;;;;;;;11.42;45.30;101754.50;5135152;27;20043;-61
2022/05/03 04:17:43;;;;;;;6.57;3.70;;;;;;;11.36;45.62;101762.94;5129415;27;20043;-62
2022/05/03 04:20:15;;;;;;;6.40;3.67;;;;;;;11.31;45.78;101767.72;5115123;28;20507;-61
2022/05/03 04:22:42;;;;;;;4.32;3.50;;;;;;;11.29;45.94;101763.41;5134163;27;20110;-61
2022/05/03 04:25:09;;;;;;;7.00;3.58;;;;;;;11.23;45.78;101767.31;5134028;27;20050;-61
2022/05/03 04:27:36;;;;;;;6.13;3.83;;;;;;;11.18;45.89;101764.03;5135944;27;20035;-62
2022/05/03 04:30:04;;;;;;;6.03;4.35;;;;;;;11.16;46.00;101767.78;5128334;27;20051;-61
2022/05/03 04:32:32;;;;;;;4.85;3.65;;;;;;;11.13;46.12;101766.09;5134231;27;20039;-61
2022/05/03 04:34:59;;;;;;;6.20;4.45;;;;;;;11.11;46.23;101759.94;5134101;27;20035;-61
2022/05/03 04:37:26;;;;;;;6.13;4.05;;;;;;;11.10;46.36;101766.28;5134517;27;20393;-61
2022/05/03 04:39:53;;;;;;;6.57;4.45;;;;;;;11.09;46.44;101761.88;5135221;27;20043;-61
2022/05/03 04:42:20;;;;;;;10.05;4.38;;;;;;;11.10;46.50;101767.16;5135352;27;20131;-60
2022/05/03 04:44:53;;;;;;;5.43;4.15;;;;;;;11.11;46.65;101763.50;5132361;27;20529;-61
2022/05/03 04:47:20;;;;;;;6.28;3.92;;;;;;;11.15;46.67;101772.28;5112634;27;20078;-61
2022/05/03 04:49:49;;;;;;;8.57;4.25;;;;;;;11.19;46.75;101773.84;5129822;27;20373;-60
2022/05/03 04:52:17;;;;;;;5.22;4.10;;;;;;;11.24;46.67;101769.06;5135312;27;20043;-60
2022/05/03 04:54:44;;;;;;;5.07;3.65;;;;;;;11.25;46.92;101775.31;5120194;27;20076;-61
2022/05/03 04:57:11;;;;;;;6.93;4.00;;;;;;;11.28;46.82;101776.00;5116685;27;20047;-61
2022/05/03 04:59:40;;;;;;;5.18;3.90;;;;;;;11.31;46.87;101775.81;5134306;27;20047;-60
2022/05/03 05:02:07;;;;;;;5.70;4.45;;;;;;;11.33;46.79;101781.97;5133599;27;20042;-62
2022/05/03 05:04:34;;;;;;;7.65;4.38;;;;;;;11.34;46.94;101781.00;5134332;27;20043;-60
2022/05/03 05:07:00;;;;;;;6.13;4.47;;;;;;;11.36;47.05;101784.47;5134934;27;20035;-61
2022/05/03 05:09:27;;;;;;;6.70;4.97;;;;;;;11.38;46.97;101781.69;5133369;27;20388;-60
2022/05/03 05:11:54;;;;;;;12.43;4.90;;;;;;;11.38;47.15;101782.56;5134637;27;20047;-63
2022/05/03 05:14:20;;;;;;;9.30;4.85;;;;;;;11.41;47.23;101784.19;5133714;27;20129;-62
2022/05/03 05:16:48;;;;;;;8.50;5.07;;;;;;;11.41;47.33;101789.56;5129360;27;20456;-62
2022/05/03 05:19:16;;;;;;;5.15;4.15;;;;;;;11.42;47.28;101794.00;5116819;27;20043;-62
2022/05/03 05:21:42;;;;;;;9.20;5.20;;;;;;;11.45;47.54;101794.66;5134021;27;20488;-62
2022/05/03 05:24:11;;;;;;;9.93;5.07;;;;;;;11.46;47.43;101799.09;5133083;27;20106;-61
2022/05/03 05:26:38;;;;;;;13.68;5.20;;;;;;;11.50;47.53;101796.22;5131018;27;20039;-60
2022/05/03 05:29:05;;;;;;;8.68;5.60;;;;;;;11.53;47.47;101793.34;5134662;27;20497;-62
2022/05/03 05:31:31;;;;;;;6.82;4.72;;;;;;;11.56;47.69;101788.66;5133125;27;20035;-60
2022/05/03 05:33:58;;;;;;;9.13;5.20;;;;;;;11.61;47.70;101793.75;5133640;27;20035;-60
2022/05/03 05:36:24;;;;;;;8.93;5.22;;;;;;;11.65;47.71;101801.53;5129714;27;20493;-61
2022/05/03 05:38:51;;;;;;;9.23;5.57;;;;;;;11.68;47.82;101801.34;5113979;28;20053;-61
2022/05/03 05:41:18;;;;;;;8.90;5.45;;;;;;;11.72;47.84;101804.72;5103042;27;20501;-61
2022/05/03 05:43:46;;;;;;;7.65;5.15;;;;;;;11.77;48.02;101806.22;5132474;27;20488;-62
2022/05/03 05:46:12;;;;;;;7.43;5.30;;;;;;;11.82;48.05;101803.25;5133004;27;20035;-61
2022/05/03 05:48:39;;;;;;;8.00;6.00;;;;;;;11.86;48.14;101802.09;5107727;27;20400;-63
2022/05/03 05:51:07;;;;;;;7.82;5.30;;;;;;;11.91;48.18;101812.63;5124673;28;20108;-61
2022/05/03 05:53:33;;;;;;;7.20;5.28;;;;;;;11.97;48.31;101815.78;5128440;28;20028;-60
2022/05/03 05:56:02;;;;;;;11.27;5.22;;;;;;;12.05;48.24;101807.25;5118806;28;20032;-61
2022/05/03 05:58:31;;;;;;;7.13;5.55;;;;;;;12.13;48.34;101804.94;5129502;28;20120;-62
2022/05/03 06:00:57;;;;;;;6.18;5.30;;;;;;;12.21;48.38;101809.84;5127357;28;20485;-61
2022/05/03 06:03:26;;;;;;;9.32;5.65;;;;;;;12.29;48.26;101813.78;5129138;28;20035;-61
2022/05/03 06:05:53;;;;;;;7.72;5.78;;;;;;;12.38;48.36;101820.44;5125990;28;20082;-61
2022/05/03 06:08:19;;;;;;;8.10;5.85;;;;;;;12.47;48.40;101814.44;5114188;28;20122;-62
2022/05/03 06:10:46;;;;;;;8.52;6.20;;;;;;;12.56;48.38;101808.47;5130901;28;20045;-62
2022/05/03 06:13:13;;;;;;;7.00;5.63;;;;;;;12.69;48.38;101811.28;5131836;28;20049;-62
2022/05/03 06:15:42;;;;;;;9.65;6.47;;;;;;;12.82;48.30;101816.75;5111661;28;20054;-61
2022/05/03 06:18:09;;;;;;;14.88;5.63;;;;;;;12.94;48.32;101814.09;5131637;28;20059;-61
2022/05/03 06:20:36;;;;;;;7.65;5.47;;;;;;;13.08;48.33;101813.19;5133377;28;20071;-61
2022/05/03 06:23:06;;;;;;;7.82;6.32;;;;;;;13.20;48.19;101820.50;5133431;28;20039;-61
2022/05/03 06:25:33;;;;;;;9.50;6.30;;;;;;;13.34;48.16;101817.75;5115879;28;20093;-61
2022/05/03 06:28:01;;;;;;;8.02;5.32;;;;;;;13.47;47.87;101820.50;5133477;28;20042;-62
2022/05/03 06:30:31;;;;;;;7.57;5.15;;;;;;;13.65;47.82;101823.78;5133458;28;20496;-62
2022/05/03 06:32:59;;;;;;;7.75;5.22;;;;;;;13.84;47.67;101824.25;5133386;28;20374;-61
2022/05/03 06:35:28;;;;;;;7.63;5.43;;;;;;;14.05;47.55;101827.28;5132056;28;20385;-61
2022/05/03 06:37:55;;;;;;;6.82;5.07;;;;;;;14.26;47.55;101814.13;5133306;28;20035;-61
2022/05/03 06:40:22;;;;;;;7.07;5.18;;;;;;;14.47;47.34;101811.78;5133501;28;20532;-62
2022/05/03 06:42:49;;;;;;;6.63;4.85;;;;;;;14.65;46.98;101813.13;5115447;28;20043;-62
2022/05/03 06:45:16;;;;;;;8.57;5.03;;;;;;;14.81;46.71;101818.28;5114112;28;20046;-60
2022/05/03 06:47:49;;;;;;;8.05;4.97;;;;;;;14.98;46.62;101823.34;5130400;28;20118;-61
2022/05/03 06:50:16;;;;;;;8.32;5.07;;;;;;;15.12;46.14;101819.63;5133776;28;20031;-61
2022/05/03 06:52:43;;;;;;;6.93;4.50;;;;;;;15.29;45.97;101821.91;5132549;28;20060;-60
2022/05/03 06:55:11;;;;;;;8.02;4.93;;;;;;;15.48;45.64;101827.66;5131892;28;20064;-61
2022/05/03 06:57:39;;;;;;;6.20;4.60;;;;;;;15.65;45.59;101822.88;5133708;27;20053;-61
2022/05/03 07:00:06;;;;;;;7.60;5.10;;;;;;;15.82;45.18;101817.88;5132042;27;20043;-61
2022/05/03 07:02:35;;;;;;;6.72;5.18;;;;;;;16.01;45.25;101821.84;5135383;27;20047;-61
2022/05/03 07:05:06;;;;;;;7.30;4.85;;;;;;;16.23;44.83;101818.31;5136929;27;20038;-61
2022/05/03 07:07:33;;;;;;;8.95;4.57;;;;;;;16.40;44.57;101829.56;5137451;27;20057;-60
2022/05/03 07:10:04;;;;;;;8.05;4.20;;;;;;;16.58;44.09;101829.94;5118917;27;20093;-61
2022/05/03 07:12:32;;;;;;;5.22;3.72;;;;;;;16.76;43.93;101827.59;5137489;27;20046;-61
2022/05/03 07:15:00;;;;;;;5.13;3.97;;;;;;;16.89;43.50;101820.19;5136179;27;20041;-62
2022/05/03 07:22:57;;;;;;;5.47;3.83;;;;;;;17.25;42.32;101827.16;5136617;27;20480;-61
2022/05/03 07:25:25;;;;;;;5.10;3.30;;;;;;;17.34;41.69;101837.25;5136530;27;20301;-61
2022/05/03 07:27:52;;;;;;;6.10;2.95;;;;;;;17.45;41.57;101823.63;5136618;27;20110;-61
2022/05/03 07:30:19;;;;;;;5.32;3.65;;;;;;;17.61;41.18;101834.03;5136858;27;20039;-62
2022/05/03 07:32:46;;;;;;;5.55;3.50;;;;;;;17.77;40.98;101839.91;5135307;27;20039;-62
2022/05/03 07:35:12;;;;;;;6.68;3.65;;;;;;;17.93;40.81;101844.06;5136864;27;20062;-61
2022/05/03 07:37:39;;;;;;;10.27;3.30;;;;;;;18.07;40.30;101841.88;5136781;27;20511;-61
2022/05/03 07:40:08;;;;;;;4.05;3.30;;;;;;;18.21;39.91;101843.41;5136733;27;20055;-61
2022/05/03 07:42:35;;;;;;;4.88;3.03;;;;;;;18.39;39.72;101838.19;5136155;27;20035;-61
2022/05/03 07:45:02;;;;;;;5.40;3.30;;;;;;;18.57;39.13;101841.13;5136145;27;20109;-62
2022/05/03 07:47:29;;;;;;;4.57;2.92;;;;;;;18.73;38.72;101831.53;5136306;27;20108;-63
2022/05/03 07:49:56;;;;;;;4.80;3.05;;;;;;;18.89;38.45;101839.16;5136505;27;20043;-61
2022/05/03 07:52:22;;;;;;;6.30;3.20;;;;;;;19.04;38.16;101831.47;5141170;27;20505;-60
2022/05/03 07:54:49;;;;;;;5.68;3.35;;;;;;;19.20;38.04;101839.94;5138203;27;20046;-61
2022/05/03 07:57:15;;;;;;;4.00;3.03;;;;;;;19.33;37.77;101829.69;5136045;27;20058;-61
2022/05/03 07:59:42;;;;;;;4.68;3.00;;;;;;;19.43;37.22;101832.41;5136084;27;20054;-61
2022/05/03 08:02:08;;;;;;;5.82;3.42;;;;;;;19.53;36.96;101832.44;5135886;27;20509;-61
2022/05/03 08:04:35;;;;;;;4.68;3.25;;;;;;;19.60;36.97;101823.56;5135900;27;20039;-61
2022/05/03 08:07:02;;;;;;;4.88;3.63;;;;;;;19.68;36.69;101831.00;5135931;27;20427;-62
2022/05/03 08:09:28;;;;;;;4.65;3.15;;;;;;;19.75;36.43;101823.13;5136008;27;20042;-63
2022/05/03 08:11:56;;;;;;;4.05;3.25;;;;;;;19.85;36.06;101826.69;5135428;27;20039;-61
2022/05/03 08:14:23;;;;;;;5.43;3.00;;;;;;;19.97;36.22;101830.97;5135651;27;20039;-62
2022/05/03 08:16:50;;;;;;;7.63;3.38;;;;;;;20.03;35.99;101830.38;5135940;27;20043;-62
2022/05/03 08:19:16;;;;;;;4.97;3.63;;;;;;;20.13;36.05;101835.84;5135810;27;20122;-62
2022/05/03 08:21:43;;;;;;;5.78;3.10;;;;;;;20.25;35.65;101826.50;5134502;27;20114;-62
2022/05/03 08:24:10;;;;;;;5.55;3.30;;;;;;;20.36;35.65;101837.22;5133962;27;20397;-60
2022/05/03 08:26:36;;;;;;;3.83;3.22;;;;;;;20.47;35.37;101831.63;5134902;27;20045;-60
2022/05/03 08:29:02;;;;;;;6.57;3.42;;;;;;;20.57;35.27;101834.31;5135706;27;20529;-62
2022/05/03 08:31:29;;;;;;;4.55;3.00;;;;;;;20.69;34.90;101841.28;5135761;27;20427;-60
2022/05/03 08:33:56;;;;;;;4.80;3.03;;;;;;;20.75;34.61;101835.22;5134709;27;20126;-62
2022/05/03 08:36:22;;;;;;;5.72;2.90;;;;;;;20.80;34.69;101835.63;5116772;27;20043;-62
2022/05/03 08:44:19;;;;;;;5.85;3.20;;;;;;;21.10;33.87;101841.81;5135534;27;20049;-61
2022/05/03 08:46:46;;;;;;;6.00;3.60;;;;;;;21.17;33.38;101837.47;5135419;27;20043;-60
2022/05/03 08:49:16;;;;;;;5.85;3.75;;;;;;;21.20;33.13;101835.28;5134360;27;20031;-60
2022/05/03 08:51:43;;;;;;;4.50;3.63;;;;;;;21.27;33.28;101829.22;5135392;27;20047;-61
2022/05/03 08:54:11;;;;;;;5.65;3.97;;;;;;;21.39;33.35;101830.72;5134990;27;20035;-60
2022/05/03 08:56:38;;;;;;;8.48;3.47;;;;;;;21.52;33.00;101832.06;5134832;27;20448;-61
2022/05/03 08:59:05;;;;;;;4.65;3.38;;;;;;;21.62;32.96;101836.59;5135154;27;20051;-62
2022/05/03 09:01:31;;;;;;;5.05;3.10;;;;;;;21.68;32.39;101836.84;5133820;27;20035;-62
2022/05/03 09:03:58;;;;;;;3.92;3.22;;;;;;;21.79;32.82;101842.06;5116867;27;20126;-62
2022/05/03 09:06:46;;;;;;;5.38;3.60;;;;;;;21.89;32.08;101839.22;5133623;27;20488;-62
2022/05/03 09:09:14;;;;;;;7.00;3.75;;;;;;;21.95;32.37;101838.59;5133120;27;20485;-61
2022/05/03 09:11:49;;;;;;;4.38;3.00;;;;;;;21.97;31.79;101835.69;5135237;27;20055;-61
2022/05/03 09:14:39;;;;;;;4.88;3.58;;;;;;;22.00;31.66;101841.72;5133930;27;20511;-62
2022/05/03 09:17:06;;;;;;;6.30;4.40;;;;;;;22.06;31.74;101842.97;5134777;27;20047;-62
2022/05/03 09:19:33;;;;;;;6.22;4.65;;;;;;;22.09;32.07;101843.53;5099857;27;20039;-61
2022/05/03 09:24:52;;;;;;;4.93;4.22;;;;;;;22.23;32.36;101838.47;5095812;27;20043;-61
2022/05/03 09:27:20;;;;;;;4.93;4.32;;;;;;;22.33;31.97;101839.25;5134732;27;20043;-61
2022/05/03 09:30:19;;;;;;;6.32;4.50;;;;;;;22.35;31.88;101835.34;5134551;27;20035;-61
2022/05/03 09:32:47;;;;;;;7.57;4.53;;;;;;;22.44;31.94;101839.84;5068998;28;20378;-62
2022/05/03 09:35:35;;;;;;;7.93;5.43;;;;;;;22.52;32.16;101836.28;5113970;28;20039;-61
2022/05/03 09:38:04;;;;;;;8.85;4.78;;;;;;;22.62;32.22;101837.03;5114061;28;20481;-61
2022/05/03 09:40:54;;;;;;;6.40;4.28;;;;;;;22.67;32.06;101839.28;5129007;27;20472;-61
2022/05/03 09:43:20;;;;;;;5.85;4.47;;;;;;;22.79;32.20;101829.75;5134548;27;20035;-62
2022/05/03 09:46:03;;;;;;;5.18;3.75;;;;;;;22.89;32.01;101832.38;5116170;28;20043;-62
2022/05/03 09:48:53;;;;;;;4.45;3.50;;;;;;;22.98;32.09;101823.19;5114058;28;20439;-61
2022/05/03 09:51:21;;;;;;;5.10;3.85;;;;;;;23.06;31.71;101821.34;5134412;27;20070;-61
2022/05/03 09:53:58;;;;;;;4.78;3.67;;;;;;;23.18;31.73;101827.38;5134107;27;20038;-62
2022/05/03 09:56:28;;;;;;;4.75;3.30;;;;;;;23.30;31.67;101826.03;5134538;27;20050;-61
2022/05/03 09:59:06;;;;;;;7.60;3.97;;;;;;;23.36;31.59;101835.47;5133641;27;20040;-62
2022/05/03 10:01:34;;;;;;;5.60;4.65;;;;;;;23.41;31.46;101824.84;5113810;28;20046;-62
2022/05/03 10:04:05;;;;;;;6.18;4.40;;;;;;;23.42;31.46;101821.94;5113690;28;20031;-61
2022/05/03 10:06:33;;;;;;;5.68;4.22;;;;;;;23.45;31.02;101820.75;5114293;28;20416;-62
2022/05/03 10:09:00;;;;;;;6.53;4.68;;;;;;;23.47;31.33;101824.16;5113472;28;20050;-62
2022/05/03 10:11:27;;;;;;;6.78;4.90;;;;;;;23.58;31.21;101823.00;5123524;28;20047;-62
2022/05/03 10:13:54;;;;;;;7.40;4.70;;;;;;;23.69;31.16;101822.69;5134165;28;20401;-62
2022/05/03 10:22:01;;;;;;;5.90;3.80;;;;;;;23.71;30.61;101817.88;5133891;28;20124;-62
2022/05/03 10:24:28;;;;;;;5.38;3.60;;;;;;;23.83;31.05;101816.53;5133637;28;20134;-62
2022/05/03 10:27:02;;;;;;;4.75;3.33;;;;;;;23.96;30.90;101821.50;5113286;28;20040;-62
2022/05/03 10:29:35;;;;;;;5.28;4.22;;;;;;;24.09;30.56;101813.59;5095709;28;20053;-62
2022/05/03 10:32:08;;;;;;;6.20;4.55;;;;;;;24.21;30.70;101814.94;5113446;28;20040;-61
2022/05/03 10:34:51;;;;;;;5.28;4.30;;;;;;;24.32;30.46;101811.00;5114397;27;20075;-62
2022/05/03 10:37:33;;;;;;;4.22;3.20;;;;;;;24.40;30.28;101810.97;5117497;28;20047;-62
2022/05/03 10:40:06;;;;;;;3.20;2.80;;;;;;;24.39;30.17;101801.88;5117186;27;20122;-61
2022/05/03 10:42:33;;;;;;;4.18;3.30;;;;;;;24.36;29.81;101804.13;5117517;28;20135;-62
2022/05/03 10:45:06;;;;;;;5.13;2.92;;;;;;;24.35;29.63;101796.91;5117246;28;20039;-63
2022/05/03 10:47:52;;;;;;;4.13;2.90;;;;;;;24.38;29.99;101791.94;5099330;28;20050;-62
2022/05/03 10:50:19;;;;;;;6.13;3.97;;;;;;;24.38;29.91;101794.69;5115866;28;20047;-62
2022/05/03 10:52:55;;;;;;;4.70;3.75;;;;;;;24.40;29.44;101802.75;5130161;27;20127;-61
2022/05/03 10:55:24;;;;;;;5.18;3.38;;;;;;;24.39;29.60;101790.91;5137430;27;20067;-62
2022/05/03 10:58:16;;;;;;;4.25;3.35;;;;;;;24.50;29.60;101797.91;5137417;27;20039;-61
2022/05/03 11:01:01;;;;;;;5.00;3.47;;;;;;;24.62;29.63;101788.28;5137631;27;20047;-61
2022/05/03 11:03:28;;;;;;;6.43;3.92;;;;;;;24.73;29.51;101786.16;5137508;27;20074;-62
2022/05/03 11:06:19;;;;;;;7.72;4.25;;;;;;;24.79;29.24;101779.94;5137254;27;20377;-62
2022/05/03 11:11:34;;;;;;;7.13;4.83;;;;;;;24.99;29.10;101781.25;5134427;27;20051;-61
2022/05/03 11:14:00;;;;;;;6.53;4.40;;;;;;;25.16;29.04;101774.59;5136694;27;20296;-61
2022/05/03 11:16:27;;;;;;;4.65;3.83;;;;;;;25.21;28.76;101774.91;5136937;27;20039;-61
2022/05/03 11:18:54;;;;;;;7.10;3.75;;;;;;;25.22;29.00;101775.78;5136294;27;20027;-61
2022/05/03 11:21:20;;;;;;;4.60;3.78;;;;;;;25.29;28.71;101769.41;5137108;27;20050;-61
2022/05/03 11:23:52;;;;;;;5.20;4.70;;;;;;;25.31;28.75;101764.56;5137004;27;20039;-62
2022/05/03 11:26:21;;;;;;;7.30;4.35;;;;;;;25.26;28.83;101772.47;5136845;27;20062;-62
2022/05/03 11:28:49;;;;;;;11.05;5.38;;;;;;;25.23;28.61;101764.59;5118833;27;20035;-62
2022/05/03 11:31:20;;;;;;;5.93;5.25;;;;;;;25.23;28.65;101769.25;5136694;27;20141;-61
2022/05/03 11:33:49;;;;;;;4.90;4.25;;;;;;;25.15;28.38;101764.66;5136320;27;20058;-61
2022/05/03 11:36:15;;;;;;;4.47;3.60;;;;;;;25.19;28.66;101755.00;5136803;27;20043;-61
2022/05/03 11:38:42;;;;;;;4.47;3.38;;;;;;;25.30;28.37;101762.84;5135472;27;20031;-62
2022/05/03 11:41:14;;;;;;;15.02;4.13;;;;;;;25.47;28.21;101754.47;5136627;27;20079;-62
2022/05/03 11:43:40;;;;;;;5.45;3.55;;;;;;;25.59;28.26;101756.59;5136716;27;20493;-63
2022/05/03 11:46:07;;;;;;;5.95;4.10;;;;;;;25.65;28.13;101761.41;5135521;27;20035;-62
2022/05/03 11:48:35;;;;;;;6.75;4.47;;;;;;;25.64;28.19;101753.28;5130632;27;20042;-61
2022/05/03 11:56:35;;;;;;;5.90;4.70;;;;;;;25.45;28.11;101735.41;5134663;27;20039;-61
2022/05/03 11:59:03;;;;;;;13.10;4.30;;;;;;;25.44;28.42;101741.09;5135514;27;20035;-62
2022/05/03 12:01:34;;;;;;;5.88;3.42;;;;;;;25.49;28.02;101738.66;5117390;27;20409;-61
2022/05/03 12:04:03;;;;;;;6.43;3.80;;;;;;;25.54;28.19;101737.03;5134938;27;20047;-61
2022/05/03 12:06:41;;;;;;;6.32;4.25;;;;;;;25.68;28.11;101731.78;5135828;27;20054;-61
2022/05/03 12:09:08;;;;;;;5.03;4.53;;;;;;;25.78;27.72;101727.75;5136122;27;20046;-61
2022/05/03 12:12:42;;;;;;;6.30;3.90;;;;;;;25.87;28.00;101725.75;5135863;27;20091;-61
2022/05/03 12:14:34;;;;;;;6.30;4.40;;;;;;;26.07;27.90;101721.44;5135546;27;20563;-61
2022/05/03 12:17:01;;;;;;;6.63;4.10;;;;;;;26.16;28.01;101722.19;5134905;27;20042;-61